Colbert, WA

9:21 AM PST on December 25, 2014 (GMT -0800)
Little Spokane/Shady Slope | Change Station
CLOSE
Current Station
Personal Weather Station
Location: Spokane, WA
Elevation: 1667 ft
Nearby Weather Stations

Elev 1667 ft 47.80 °N, 117.38 °W | Updated 5 seconds ago

Partly Cloudy
Partly Cloudy
25.5 °F
Feels Like 26 °F
N
0.0
Wind Variable Wind from WNW
Gusts 0.0 mph

Today
High -- | Low -- °F
--% Chance of Precip.
Yesterday
High -- | Low -- °F
Precip. -- in
7:37 AM 4:02 PM
Waxing Crescent, 18% visible
Pressure 30.07 in
Visibility 0.2 miles
Clouds
Windchill 26 °F
Dew Point 24 °F
Humidity 93%
Rainfall 0.00 in
Snow Depth Not available.
UV 1.0 out of 12
Pollen .10 out of 12
Air Quality Not available.
Flu Activity Not available.
METAR KSFF 251653Z 00000KT 1/4SM FZFG VV002 M03/M04 A3002 RMK AO2 SLP182 T10281039

More Conditions Fewer Conditions

Pressure 30.07 in
Visibility 0.2 miles
Clouds
Windchill 26 °F
Dew Point 24 °F
Humidity 93%
Rainfall 0.00 in
Snow Depth Not available.
UV 1.0 out of 12
Pollen .10 out of 12
Air Quality Not available.
Flu Activity Not available.
METAR KSFF 251653Z 00000KT 1/4SM FZFG VV002 M03/M04 A3002 RMK AO2 SLP182 T10281039

More Conditions Fewer Conditions

Nowcast | as of 8:11 am PST on December 25, 2014

Motorists should be prepared for very slippery roads from thick fog through 10 am. Patchy fog will reduce visibilities to a quarter mile or less areas around Spokane...Post Falls...Coeur D'Alene...Cusick...and Colville. Fog may be the most problematic along the Spokane River...Lake Coeur D'Alene...the Pend Oreille river...and along Lake Roosevelt.

×

10-Day Weather Forecast

Almanac

Astronomy

Dec. 25, 2014 Rise Set
Actual Time
Civil Twilight
Nautical Twilight
Astronomical Twilight
Moon
Length of Visible Light
Length of Day
Tomorrow will be .
, % of the Moon is Illuminated

Today's Extremes

State Highs State Lows

Community

WunderPhotos

Upload Photos

1,780,346 photos uploaded!

WunderBlogs® & News

Nearby

Air Quality

  Air Quality AQ Index Pollutant
Not available.

Snow Depth

Station Depth Elevation

Earthquake Activity

City Distance Mag. Time & Date
Minimum magnitude displayed is 2.5.

Coastal Water Temperatures

Place Temperature

Nearby Weather Stations